createdAt,value
2023-03-18T00:01:03.440Z,14.00
2023-03-18T00:03:36.698Z,17.13
2023-03-18T00:06:17.756Z,11.90
2023-03-18T00:08:46.648Z,13.63
2023-03-18T00:11:17.714Z,14.57
2023-03-18T00:13:44.204Z,13.73
2023-03-18T00:16:11.752Z,14.67
2023-03-18T00:18:39.520Z,16.70
2023-03-18T00:21:06.644Z,11.87
2023-03-18T00:23:34.084Z,16.80
2023-03-18T00:26:02.373Z,12.90
2023-03-18T00:28:33.617Z,15.30
2023-03-18T00:31:09.947Z,17.47
2023-03-18T00:33:39.325Z,13.00
2023-03-18T00:36:09.361Z,13.47
2023-03-18T00:38:36.480Z,14.23
2023-03-18T00:41:12.504Z,11.33
2023-03-18T00:43:46.186Z,13.47
2023-03-18T00:46:23.775Z,12.57
2023-03-18T00:48:54.017Z,10.67
2023-03-18T00:51:23.054Z,12.90
2023-03-18T00:53:56.206Z,13.67
2023-03-18T00:56:27.165Z,14.37
2023-03-18T00:58:54.337Z,16.30
2023-03-18T01:01:21.750Z,11.67
2023-03-18T01:03:51.155Z,13.97
2023-03-18T01:06:22.888Z,12.93
2023-03-18T01:08:50.951Z,12.80
2023-03-18T01:11:18.000Z,10.93
2023-03-18T01:13:45.372Z,11.63
2023-03-18T01:16:12.588Z,12.00
2023-03-18T01:18:40.710Z,13.03
2023-03-18T01:21:09.483Z,15.53
2023-03-18T01:23:37.544Z,11.20
2023-03-18T01:26:05.129Z,11.47
2023-03-18T01:28:32.096Z,13.80
2023-03-18T01:30:59.178Z,12.13
2023-03-18T01:33:26.918Z,18.97
2023-03-18T01:35:59.842Z,12.27
2023-03-18T01:38:30.717Z,11.87
2023-03-18T01:40:59.837Z,14.90
2023-03-18T01:43:38.043Z,12.43
2023-03-18T01:48:57.419Z,14.60
2023-03-18T01:51:26.690Z,11.20
2023-03-18T01:53:55.855Z,10.50
2023-03-18T01:56:22.956Z,13.13
2023-03-18T01:58:56.785Z,12.87
2023-03-18T02:01:38.482Z,11.73
2023-03-18T02:04:09.727Z,13.10
2023-03-18T02:06:38.113Z,13.70
2023-03-18T02:09:06.502Z,11.40
2023-03-18T02:11:39.290Z,14.50
2023-03-18T02:14:10.904Z,14.07
2023-03-18T02:16:51.943Z,13.03
2023-03-18T02:22:38.579Z,13.27
2023-03-18T02:28:09.316Z,10.30
2023-03-18T02:30:54.264Z,13.47
2023-03-18T02:33:25.938Z,11.90
2023-03-18T02:36:10.336Z,21.97
2023-03-18T02:38:42.581Z,9.97
2023-03-18T02:41:21.863Z,14.00
2023-03-18T02:43:49.595Z,17.70
2023-03-18T02:48:42.595Z,14.60
2023-03-18T02:51:12.103Z,12.70
2023-03-18T02:53:39.060Z,11.63
2023-03-18T02:56:06.681Z,11.53
2023-03-18T02:58:33.594Z,15.20
2023-03-18T03:01:00.533Z,14.10
2023-03-18T03:03:28.484Z,14.80
2023-03-18T03:05:55.692Z,11.63
2023-03-18T03:08:23.605Z,12.33
2023-03-18T03:10:51.590Z,12.67
2023-03-18T03:13:19.549Z,9.13
2023-03-18T03:15:46.372Z,8.70
2023-03-18T03:18:12.884Z,10.87
2023-03-18T03:20:39.716Z,15.97
2023-03-18T03:23:09.392Z,19.13
2023-03-18T03:25:36.871Z,9.40
2023-03-18T03:28:05.055Z,12.33
2023-03-18T03:30:32.217Z,18.97
2023-03-18T03:32:59.687Z,14.13
2023-03-18T03:35:27.118Z,11.33
2023-03-18T03:37:53.630Z,12.17
2023-03-18T03:40:20.902Z,15.43
2023-03-18T03:42:48.338Z,17.70
2023-03-18T03:45:17.911Z,15.53
2023-03-18T03:47:48.043Z,14.07
2023-03-18T03:50:17.230Z,16.37
2023-03-18T03:52:44.604Z,12.23
2023-03-18T03:55:16.711Z,12.57
2023-03-18T03:57:43.448Z,10.20
2023-03-18T04:00:15.869Z,11.67
2023-03-18T04:02:44.146Z,14.07
2023-03-18T04:05:16.119Z,12.10
2023-03-18T04:07:44.588Z,11.77
2023-03-18T04:10:14.215Z,13.77
2023-03-18T04:12:40.818Z,13.00
2023-03-18T04:15:09.031Z,11.50
2023-03-18T04:17:35.781Z,15.23
2023-03-18T04:20:04.090Z,15.17
2023-03-18T04:22:31.024Z,13.47
2023-03-18T04:24:57.838Z,16.90
2023-03-18T04:27:26.000Z,16.97
2023-03-18T04:29:52.471Z,15.80
2023-03-18T04:32:18.951Z,16.60
2023-03-18T04:34:45.662Z,12.70
2023-03-18T04:37:13.750Z,18.57
2023-03-18T04:39:41.202Z,14.13
2023-03-18T04:42:08.027Z,15.53
2023-03-18T04:44:34.502Z,13.50
2023-03-18T04:47:00.977Z,11.97
2023-03-18T04:49:27.459Z,10.47
2023-03-18T04:51:54.144Z,18.60
2023-03-18T04:54:20.861Z,10.07
2023-03-18T04:56:47.529Z,10.17
2023-03-18T04:59:14.215Z,9.67
2023-03-18T05:01:40.681Z,12.60
2023-03-18T05:04:07.572Z,16.07
2023-03-18T05:06:34.185Z,12.80
2023-03-18T05:09:01.056Z,13.20
2023-03-18T05:11:28.295Z,12.70
2023-03-18T05:13:54.949Z,13.83
2023-03-18T05:16:21.444Z,10.50
2023-03-18T05:18:48.202Z,14.63
2023-03-18T05:21:14.866Z,13.57
2023-03-18T05:23:41.418Z,15.97
2023-03-18T05:26:09.195Z,12.43
2023-03-18T05:28:35.679Z,18.57
2023-03-18T05:31:02.923Z,13.93
2023-03-18T05:33:29.464Z,16.77
2023-03-18T05:35:56.132Z,10.53
2023-03-18T05:38:22.629Z,12.77
2023-03-18T05:40:49.172Z,14.07
2023-03-18T05:43:16.024Z,16.87
2023-03-18T05:45:43.392Z,9.17
2023-03-18T05:48:10.916Z,18.60
2023-03-18T05:50:41.571Z,14.47
2023-03-18T05:53:09.111Z,10.73
2023-03-18T05:55:35.798Z,9.93
2023-03-18T05:58:03.222Z,10.23
2023-03-18T06:00:30.796Z,17.03
2023-03-18T06:02:59.330Z,12.53
2023-03-18T06:05:26.296Z,15.27
2023-03-18T06:07:54.087Z,14.60
2023-03-18T06:10:22.153Z,11.53
2023-03-18T06:12:49.914Z,13.30
2023-03-18T06:15:16.772Z,13.60
2023-03-18T06:17:43.274Z,17.90
2023-03-18T06:20:13.508Z,11.30
2023-03-18T06:22:40.261Z,10.70
2023-03-18T06:25:07.811Z,12.73
2023-03-18T06:27:35.696Z,14.27
2023-03-18T06:30:03.826Z,12.73
2023-03-18T06:32:32.227Z,13.43
2023-03-18T06:34:59.279Z,17.10
2023-03-18T06:37:25.836Z,13.43
2023-03-18T06:39:52.445Z,19.27
2023-03-18T06:42:18.911Z,17.80
2023-03-18T06:44:49.803Z,22.43
2023-03-18T06:47:23.714Z,20.37
2023-03-18T06:49:51.116Z,21.53
2023-03-18T06:52:18.382Z,25.00
2023-03-18T06:54:45.876Z,20.10
2023-03-18T06:57:12.806Z,22.37
2023-03-18T06:59:39.288Z,17.30
2023-03-18T07:02:07.785Z,25.67
2023-03-18T07:04:34.704Z,15.57
2023-03-18T07:07:01.343Z,26.70
2023-03-18T07:09:28.216Z,20.03
2023-03-18T07:11:54.734Z,22.27
2023-03-18T07:14:21.219Z,26.27
2023-03-18T07:16:47.698Z,18.60
2023-03-18T07:19:14.553Z,29.17
2023-03-18T07:21:42.231Z,20.30
2023-03-18T07:24:10.453Z,28.37
2023-03-18T07:26:36.944Z,26.33
2023-03-18T07:29:04.198Z,25.57
2023-03-18T07:31:31.050Z,20.10
2023-03-18T07:33:57.607Z,17.53
2023-03-18T07:36:24.931Z,20.33
2023-03-18T07:38:51.454Z,21.13
2023-03-18T07:41:17.930Z,18.87
2023-03-18T07:43:44.444Z,17.80
2023-03-18T07:46:11.110Z,18.40
2023-03-18T07:48:37.616Z,16.43
2023-03-18T07:51:04.587Z,14.83
2023-03-18T07:53:31.044Z,15.60
2023-03-18T07:55:57.560Z,14.00
2023-03-18T07:58:24.913Z,16.67
2023-03-18T08:00:52.705Z,14.30
2023-03-18T08:03:19.202Z,17.20
2023-03-18T08:05:45.692Z,22.17
2023-03-18T08:08:12.162Z,15.33
2023-03-18T08:10:38.628Z,19.43
2023-03-18T08:13:05.399Z,14.77
2023-03-18T08:15:32.173Z,21.60
2023-03-18T08:17:59.259Z,17.43
2023-03-18T08:20:26.381Z,18.30
2023-03-18T08:22:52.909Z,17.30
2023-03-18T08:25:21.537Z,29.77
2023-03-18T08:27:47.985Z,20.03
2023-03-18T08:30:14.592Z,15.97
2023-03-18T08:32:41.305Z,17.63
2023-03-18T08:35:09.147Z,17.40
2023-03-18T08:37:35.929Z,17.23
2023-03-18T08:40:03.125Z,16.97
2023-03-18T08:42:29.771Z,20.13
2023-03-18T08:44:56.888Z,19.47
2023-03-18T08:47:24.439Z,16.87
2023-03-18T08:49:51.478Z,14.93
2023-03-18T08:52:18.414Z,16.07
2023-03-18T08:54:45.125Z,18.13
2023-03-18T08:57:12.043Z,17.90
2023-03-18T08:59:38.578Z,23.90
2023-03-18T09:02:05.223Z,22.33
2023-03-18T09:04:32.049Z,23.80
2023-03-18T09:07:00.121Z,18.27
2023-03-18T09:09:40.875Z,16.03
2023-03-18T09:12:11.728Z,16.43
2023-03-18T09:14:39.643Z,26.93
2023-03-18T09:17:06.797Z,28.97
2023-03-18T09:19:33.265Z,18.53
2023-03-18T09:21:59.861Z,21.30
2023-03-18T09:24:26.341Z,15.77
2023-03-18T09:26:52.843Z,17.20
2023-03-18T09:29:19.405Z,18.27
2023-03-18T09:31:46.211Z,18.10
2023-03-18T09:34:13.712Z,17.10
2023-03-18T09:36:42.829Z,16.17
2023-03-18T09:39:09.359Z,23.70
2023-03-18T09:42:31.960Z,17.87
2023-03-18T09:45:14.205Z,18.13
2023-03-18T09:48:26.967Z,18.83
2023-03-18T09:52:08.258Z,21.03
2023-03-18T09:55:21.051Z,20.07
2023-03-18T09:57:52.578Z,19.47
2023-03-18T10:00:36.159Z,17.37
2023-03-18T10:03:33.757Z,19.80
2023-03-18T10:06:11.838Z,17.07
2023-03-18T10:12:36.665Z,18.13
2023-03-18T10:15:44.835Z,23.30
2023-03-18T10:18:27.180Z,22.87
2023-03-18T10:21:40.672Z,19.53
2023-03-18T10:25:09.359Z,18.27
2023-03-18T10:30:37.209Z,19.77
2023-03-18T10:33:27.046Z,20.47
2023-03-18T10:36:11.691Z,18.87
2023-03-18T10:38:46.310Z,17.33
2023-03-18T10:41:29.000Z,18.47
2023-03-18T10:44:01.117Z,18.67
2023-03-18T10:46:27.872Z,20.17
2023-03-18T10:49:10.938Z,18.20
2023-03-18T10:51:52.825Z,23.40
2023-03-18T10:54:36.679Z,22.40
2023-03-18T10:57:03.439Z,21.87
2023-03-18T10:59:30.338Z,16.13
2023-03-18T11:02:09.456Z,21.40
2023-03-18T11:04:47.904Z,19.03
2023-03-18T11:07:25.982Z,25.27
2023-03-18T11:09:53.898Z,19.03
2023-03-18T11:12:28.480Z,16.53
2023-03-18T11:14:55.768Z,25.27
2023-03-18T11:17:32.502Z,22.07
2023-03-18T11:20:24.615Z,29.10
2023-03-18T11:22:54.900Z,18.40
2023-03-18T11:25:29.395Z,27.23
2023-03-18T11:28:04.943Z,21.23
2023-03-18T11:30:55.434Z,23.73
2023-03-18T11:33:36.542Z,20.33
2023-03-18T11:36:13.723Z,25.50
2023-03-18T11:38:40.260Z,19.83
2023-03-18T11:41:23.299Z,18.50
2023-03-18T11:44:15.445Z,24.83
2023-03-18T11:47:04.662Z,29.13
2023-03-18T11:49:32.214Z,20.03
2023-03-18T11:52:39.602Z,27.63
2023-03-18T11:56:22.256Z,19.97
2023-03-18T12:01:12.764Z,27.37
2023-03-18T12:04:26.282Z,20.67
2023-03-18T12:10:52.009Z,29.53
2023-03-18T12:13:56.388Z,32.27
2023-03-18T12:17:05.637Z,28.27
2023-03-18T12:20:40.056Z,20.87
2023-03-18T12:23:50.091Z,24.63
2023-03-18T12:26:56.567Z,17.60
2023-03-18T12:29:51.774Z,18.67
2023-03-18T12:38:21.157Z,19.97
2023-03-18T12:43:56.480Z,18.07
2023-03-18T12:46:39.603Z,19.27
2023-03-18T12:49:27.891Z,22.97
2023-03-18T12:52:07.011Z,19.03
2023-03-18T12:55:06.726Z,24.57
2023-03-18T12:58:09.581Z,23.93
2023-03-18T13:00:53.706Z,16.43
2023-03-18T13:05:51.904Z,26.07
2023-03-18T13:10:05.038Z,18.50
2023-03-18T13:12:42.212Z,20.60
2023-03-18T13:15:39.802Z,19.83
2023-03-18T13:18:24.139Z,23.10
2023-03-18T13:20:55.954Z,24.97
2023-03-18T13:27:58.792Z,20.20
2023-03-18T13:31:09.366Z,21.57
2023-03-18T13:35:58.578Z,19.33
2023-03-18T13:44:04.758Z,20.83
2023-03-18T13:46:33.135Z,19.20
2023-03-18T13:49:03.232Z,24.07
2023-03-18T13:51:58.761Z,19.30
2023-03-18T13:54:40.354Z,20.43
2023-03-18T13:57:42.989Z,21.87
2023-03-18T14:02:44.633Z,22.53
2023-03-18T14:06:54.603Z,24.37
2023-03-18T14:09:45.563Z,21.87
2023-03-18T14:12:39.028Z,21.80
2023-03-18T14:15:43.740Z,19.33
2023-03-18T14:18:26.718Z,25.70
2023-03-18T14:21:00.840Z,18.60
2023-03-18T14:23:36.479Z,23.10
2023-03-18T14:26:29.042Z,20.07
2023-03-18T14:29:46.066Z,17.50
2023-03-18T14:32:38.808Z,28.07
2023-03-18T14:37:28.730Z,22.40
2023-03-18T14:40:38.621Z,17.93
2023-03-18T14:43:24.821Z,20.17
2023-03-18T14:45:57.183Z,18.90
2023-03-18T14:48:30.636Z,22.83
2023-03-18T14:51:10.944Z,27.07
2023-03-18T14:54:00.649Z,18.20
2023-03-18T14:56:39.539Z,16.50
2023-03-18T14:59:07.218Z,19.67
2023-03-18T15:01:43.876Z,19.30
2023-03-18T15:04:21.242Z,18.07
2023-03-18T15:06:48.828Z,29.00
2023-03-18T15:09:27.820Z,21.17
2023-03-18T15:11:54.631Z,23.60
2023-03-18T15:14:27.611Z,19.20
2023-03-18T15:17:13.613Z,21.90
2023-03-18T15:19:40.358Z,19.87
2023-03-18T15:22:15.696Z,20.63
2023-03-18T15:24:42.764Z,25.23
2023-03-18T15:27:21.177Z,23.47
2023-03-18T15:30:01.635Z,24.53
2023-03-18T15:32:48.928Z,20.00
2023-03-18T15:35:24.131Z,23.53
2023-03-18T15:41:06.733Z,20.37
2023-03-18T15:43:44.201Z,22.33
2023-03-18T15:46:32.084Z,20.13
2023-03-18T15:49:04.623Z,24.30
2023-03-18T15:51:44.247Z,22.30
2023-03-18T15:54:27.367Z,20.27
2023-03-18T15:56:57.167Z,20.60
2023-03-18T15:59:32.572Z,33.27
2023-03-18T16:02:00.788Z,18.80
2023-03-18T16:04:33.378Z,19.17
2023-03-18T16:06:59.914Z,18.10
2023-03-18T16:09:26.721Z,24.20
2023-03-18T16:12:09.654Z,23.07
2023-03-18T16:14:42.389Z,22.17
2023-03-18T16:17:21.139Z,30.00
2023-03-18T16:19:53.399Z,27.30
2023-03-18T16:22:19.880Z,24.70
2023-03-18T16:24:46.385Z,21.20
2023-03-18T16:27:38.511Z,26.93
2023-03-18T16:30:28.907Z,22.90
2023-03-18T16:32:57.285Z,25.20
2023-03-18T16:35:29.842Z,23.93
2023-03-18T16:37:57.005Z,24.67
2023-03-18T16:40:27.605Z,23.67
2023-03-18T16:42:55.006Z,21.20
2023-03-18T16:45:30.659Z,17.33
2023-03-18T16:48:06.952Z,23.40
2023-03-18T16:50:37.698Z,18.90
2023-03-18T16:53:26.842Z,22.93
2023-03-18T16:56:09.393Z,22.70
2023-03-18T16:58:36.968Z,29.50
2023-03-18T17:01:06.589Z,20.90
2023-03-18T17:03:35.009Z,24.60
2023-03-18T17:06:01.678Z,15.87
2023-03-18T17:08:28.180Z,20.23
2023-03-18T17:11:01.085Z,19.90
2023-03-18T17:13:31.245Z,21.63
2023-03-18T17:15:57.832Z,25.90
2023-03-18T17:18:25.599Z,21.23
2023-03-18T17:20:52.091Z,24.87
2023-03-18T17:23:25.957Z,22.73
2023-03-18T17:25:56.361Z,28.33
2023-03-18T17:28:42.877Z,33.50
2023-03-18T17:31:11.953Z,30.70
2023-03-18T17:33:38.460Z,21.27
2023-03-18T17:36:06.792Z,22.30
2023-03-18T17:38:36.602Z,18.47
2023-03-18T17:41:13.893Z,20.77
2023-03-18T17:43:41.248Z,24.13
2023-03-18T17:46:07.830Z,29.50
2023-03-18T17:48:37.087Z,34.33
2023-03-18T17:51:15.356Z,34.67
2023-03-18T17:53:48.725Z,34.17
2023-03-18T17:56:18.657Z,26.47
2023-03-18T17:58:50.894Z,33.30
2023-03-18T18:01:29.493Z,35.63
2023-03-18T18:03:58.674Z,29.70
2023-03-18T18:06:28.872Z,33.77
2023-03-18T18:08:59.653Z,29.73
2023-03-18T18:11:35.097Z,30.77
2023-03-18T18:15:54.686Z,29.47
2023-03-18T18:18:26.763Z,21.73
2023-03-18T18:21:02.304Z,38.60
2023-03-18T18:23:33.163Z,31.50
2023-03-18T18:26:06.683Z,38.77
2023-03-18T18:28:42.897Z,32.43
2023-03-18T18:31:11.921Z,32.43
2023-03-18T18:33:41.750Z,31.13
2023-03-18T18:36:09.914Z,34.07
2023-03-18T18:38:36.420Z,36.00
2023-03-18T18:41:04.117Z,28.87
2023-03-18T18:43:30.616Z,24.00
2023-03-18T18:45:58.181Z,29.57
2023-03-18T18:48:37.126Z,26.23
2023-03-18T18:51:04.321Z,26.83
2023-03-18T18:53:35.857Z,27.77
2023-03-18T18:56:17.892Z,23.47
2023-03-18T18:58:44.941Z,25.03
2023-03-18T19:01:12.462Z,30.93
2023-03-18T19:03:40.726Z,23.87
2023-03-18T19:06:30.143Z,27.77
2023-03-18T19:09:02.551Z,29.30
2023-03-18T19:11:29.443Z,30.60
2023-03-18T19:14:25.838Z,25.83
2023-03-18T19:16:55.651Z,28.27
2023-03-18T19:19:30.492Z,26.10
2023-03-18T19:21:57.337Z,27.50
2023-03-18T19:24:30.755Z,29.43
2023-03-18T19:27:02.406Z,30.37
2023-03-18T19:29:29.782Z,27.33
2023-03-18T19:31:56.481Z,25.93
2023-03-18T19:34:23.143Z,26.33
2023-03-18T19:36:53.949Z,22.93
2023-03-18T19:39:21.795Z,21.80
2023-03-18T19:41:48.947Z,25.57
2023-03-18T19:44:19.656Z,24.10
2023-03-18T19:46:48.602Z,23.70
2023-03-18T19:49:26.581Z,26.80
2023-03-18T19:51:54.222Z,24.57
2023-03-18T19:54:42.221Z,29.00
2023-03-18T19:57:29.452Z,23.70
2023-03-18T19:59:58.560Z,19.27
2023-03-18T20:02:32.135Z,24.57
2023-03-18T20:05:15.518Z,22.77
2023-03-18T20:07:42.069Z,24.53
2023-03-18T20:10:11.633Z,23.87
2023-03-18T20:12:45.625Z,21.97
2023-03-18T20:15:19.627Z,21.03
2023-03-18T20:17:51.041Z,20.83
2023-03-18T20:20:30.397Z,26.37
2023-03-18T20:23:04.071Z,28.37
2023-03-18T20:25:40.215Z,21.80
2023-03-18T20:28:16.956Z,26.20
2023-03-18T20:30:46.059Z,23.50
2023-03-18T20:33:13.148Z,29.23
2023-03-18T20:35:44.114Z,30.70
2023-03-18T20:38:34.843Z,37.43
2023-03-18T20:41:04.689Z,31.83
2023-03-18T20:43:31.172Z,37.80
2023-03-18T20:46:00.416Z,33.20
2023-03-18T20:48:27.382Z,26.50
2023-03-18T20:50:54.784Z,21.60
2023-03-18T20:53:26.498Z,20.03
2023-03-18T20:55:53.026Z,23.47
2023-03-18T20:58:23.359Z,27.97
2023-03-18T21:00:51.584Z,26.07
2023-03-18T21:03:28.622Z,23.97
2023-03-18T21:05:57.985Z,20.07
2023-03-18T21:08:26.126Z,25.03
2023-03-18T21:10:59.011Z,25.50
2023-03-18T21:13:38.019Z,26.80
2023-03-18T21:16:10.876Z,22.63
2023-03-18T21:18:37.422Z,23.73
2023-03-18T21:21:03.940Z,28.03
2023-03-18T21:23:33.509Z,34.13
2023-03-18T21:26:01.289Z,29.30
2023-03-18T21:28:29.828Z,34.80
2023-03-18T21:30:58.200Z,27.37
2023-03-18T21:33:35.536Z,21.50
2023-03-18T21:36:02.555Z,24.87
2023-03-18T21:38:31.880Z,22.43
2023-03-18T21:41:01.198Z,25.87
2023-03-18T21:43:34.194Z,23.83
2023-03-18T21:46:03.724Z,27.03
2023-03-18T21:48:30.884Z,23.87
2023-03-18T21:50:57.930Z,26.43
2023-03-18T21:53:26.991Z,26.30
2023-03-18T21:55:54.026Z,25.23
2023-03-18T21:58:25.965Z,33.97
2023-03-18T22:00:58.846Z,25.53
2023-03-18T22:03:29.121Z,26.47
2023-03-18T22:05:56.683Z,24.33
2023-03-18T22:08:23.956Z,21.43
2023-03-18T22:10:51.707Z,18.93
2023-03-18T22:13:26.992Z,23.50
2023-03-18T22:15:56.247Z,22.73
2023-03-18T22:18:23.411Z,24.37
2023-03-18T22:20:51.368Z,19.43
2023-03-18T22:23:29.195Z,21.23
2023-03-18T22:25:57.410Z,24.57
2023-03-18T22:28:27.259Z,22.30
2023-03-18T22:30:55.115Z,20.80
2023-03-18T22:33:29.902Z,23.23
2023-03-18T22:35:56.982Z,21.23
2023-03-18T22:38:25.111Z,21.73
2023-03-18T22:40:55.668Z,22.37
2023-03-18T22:43:34.721Z,26.37
2023-03-18T22:46:05.634Z,21.50
2023-03-18T22:48:32.701Z,21.80
2023-03-18T22:51:00.993Z,21.17
2023-03-18T22:53:35.254Z,24.50
2023-03-18T22:56:09.343Z,23.43
2023-03-18T22:58:36.206Z,20.10
2023-03-18T23:01:03.424Z,22.67
2023-03-18T23:03:39.548Z,30.27
2023-03-18T23:06:07.128Z,20.53
2023-03-18T23:08:33.578Z,20.47
2023-03-18T23:11:01.714Z,22.17
2023-03-18T23:13:41.212Z,21.40
2023-03-18T23:16:14.821Z,20.13
2023-03-18T23:18:41.480Z,23.67
2023-03-18T23:21:16.414Z,22.67
2023-03-18T23:23:42.899Z,27.93
2023-03-18T23:26:09.409Z,23.60
2023-03-18T23:28:44.087Z,20.20
2023-03-18T23:31:12.590Z,22.43
2023-03-18T23:33:39.111Z,23.53
2023-03-18T23:36:06.155Z,18.90
2023-03-18T23:38:32.625Z,20.17
2023-03-18T23:40:59.145Z,24.40
2023-03-18T23:43:25.689Z,24.00
2023-03-18T23:45:52.292Z,26.93
2023-03-18T23:48:18.856Z,22.93
2023-03-18T23:50:45.759Z,24.90
2023-03-18T23:53:12.266Z,20.00
2023-03-18T23:55:38.785Z,22.20
2023-03-18T23:58:05.521Z,20.10
